Athens, Tennessee
Current Conditions -  °F | °C
As of 12:55 AM on Saturday 01 Nov 2014 (Local Time) from KMMI Reporting Station
Broken Clouds Broken Clouds  
Wind Chill: 28°   Ceiling: 4000
Heat Index: 36°   Visibility: 8mi
Dew Point: 30°   Wind: 12mph
Humidity: 81%   Direction: 300°WNW
Pressure: 30.01"   Gusts: NA
Location:  35.44°N, 84.59°W
Report Text: KMMI 010455Z AUTO 30010KT 8SM FEW016 SCT029 BKN040 02/M01 A3001 RMK
Loading
Personal Weather Stations






























Interactive Weather Map
Tropical Storm Tracking
New forecast layout! Learn more

10-Day Weather Forecast

Advertisements
Track Severe Weather on mobile